sensor_id;sensor_type;location;lat;lon;timestamp;P1;durP1;ratioP1;P2;durP2;ratioP2
33716;SDS011;20046;50.746;7.072;2022-12-18T00:01:59;64.68;;;22.40;;
33716;SDS011;20046;50.746;7.072;2022-12-18T00:04:25;66.75;;;23.30;;
33716;SDS011;20046;50.746;7.072;2022-12-18T00:06:52;64.03;;;22.83;;
33716;SDS011;20046;50.746;7.072;2022-12-18T00:09:18;63.88;;;24.13;;
33716;SDS011;20046;50.746;7.072;2022-12-18T00:11:44;71.40;;;22.90;;
33716;SDS011;20046;50.746;7.072;2022-12-18T00:14:11;65.50;;;23.38;;
33716;SDS011;20046;50.746;7.072;2022-12-18T00:16:37;66.40;;;23.08;;
33716;SDS011;20046;50.746;7.072;2022-12-18T00:19:03;60.55;;;22.63;;
33716;SDS011;20046;50.746;7.072;2022-12-18T00:21:31;69.55;;;23.30;;
33716;SDS011;20046;50.746;7.072;2022-12-18T00:23:57;64.93;;;23.33;;
33716;SDS011;20046;50.746;7.072;2022-12-18T00:26:24;68.10;;;23.02;;
33716;SDS011;20046;50.746;7.072;2022-12-18T00:28:52;72.85;;;23.63;;
33716;SDS011;20046;50.746;7.072;2022-12-18T00:31:19;154.63;;;48.80;;
33716;SDS011;20046;50.746;7.072;2022-12-18T00:33:46;86.22;;;29.27;;
33716;SDS011;20046;50.746;7.072;2022-12-18T00:36:14;77.15;;;25.20;;
33716;SDS011;20046;50.746;7.072;2022-12-18T00:38:44;61.00;;;22.13;;
33716;SDS011;20046;50.746;7.072;2022-12-18T00:41:11;66.53;;;24.60;;
33716;SDS011;20046;50.746;7.072;2022-12-18T00:43:37;73.85;;;24.10;;
33716;SDS011;20046;50.746;7.072;2022-12-18T00:46:03;66.15;;;23.75;;
33716;SDS011;20046;50.746;7.072;2022-12-18T00:48:30;60.70;;;22.10;;
33716;SDS011;20046;50.746;7.072;2022-12-18T00:50:55;63.65;;;23.08;;
33716;SDS011;20046;50.746;7.072;2022-12-18T00:53:21;71.75;;;22.58;;
33716;SDS011;20046;50.746;7.072;2022-12-18T00:55:47;61.33;;;23.00;;
33716;SDS011;20046;50.746;7.072;2022-12-18T00:58:13;73.20;;;23.65;;
33716;SDS011;20046;50.746;7.072;2022-12-18T01:00:40;69.07;;;23.77;;
33716;SDS011;20046;50.746;7.072;2022-12-18T01:03:06;67.85;;;24.42;;
33716;SDS011;20046;50.746;7.072;2022-12-18T01:05:32;72.63;;;25.02;;
33716;SDS011;20046;50.746;7.072;2022-12-18T01:07:58;67.53;;;25.10;;
33716;SDS011;20046;50.746;7.072;2022-12-18T01:10:24;67.93;;;24.95;;
33716;SDS011;20046;50.746;7.072;2022-12-18T01:12:50;72.97;;;23.95;;
33716;SDS011;20046;50.746;7.072;2022-12-18T01:15:16;76.70;;;23.83;;
33716;SDS011;20046;50.746;7.072;2022-12-18T01:17:43;76.63;;;24.60;;
33716;SDS011;20046;50.746;7.072;2022-12-18T01:20:09;69.10;;;24.63;;
33716;SDS011;20046;50.746;7.072;2022-12-18T01:22:36;58.50;;;22.50;;
33716;SDS011;20046;50.746;7.072;2022-12-18T01:25:02;74.38;;;24.45;;
33716;SDS011;20046;50.746;7.072;2022-12-18T01:27:29;64.72;;;24.35;;
33716;SDS011;20046;50.746;7.072;2022-12-18T01:29:55;72.75;;;23.77;;
33716;SDS011;20046;50.746;7.072;2022-12-18T01:32:20;64.07;;;22.73;;
33716;SDS011;20046;50.746;7.072;2022-12-18T01:34:46;72.97;;;23.85;;
33716;SDS011;20046;50.746;7.072;2022-12-18T01:37:12;72.25;;;24.98;;
33716;SDS011;20046;50.746;7.072;2022-12-18T01:39:38;73.25;;;21.92;;
33716;SDS011;20046;50.746;7.072;2022-12-18T01:42:05;64.00;;;23.35;;
33716;SDS011;20046;50.746;7.072;2022-12-18T01:50:15;87.18;;;31.02;;
33716;SDS011;20046;50.746;7.072;2022-12-18T01:53:26;81.38;;;27.95;;
33716;SDS011;20046;50.746;7.072;2022-12-18T01:55:36;75.47;;;27.30;;
33716;SDS011;20046;50.746;7.072;2022-12-18T01:58:05;76.67;;;25.00;;
33716;SDS011;20046;50.746;7.072;2022-12-18T02:00:31;65.30;;;24.52;;
33716;SDS011;20046;50.746;7.072;2022-12-18T02:02:56;63.67;;;22.70;;
33716;SDS011;20046;50.746;7.072;2022-12-18T02:11:05;74.68;;;23.75;;
33716;SDS011;20046;50.746;7.072;2022-12-18T02:13:42;62.70;;;22.88;;
33716;SDS011;20046;50.746;7.072;2022-12-18T02:16:25;72.55;;;24.15;;
33716;SDS011;20046;50.746;7.072;2022-12-18T02:19:00;71.65;;;24.20;;
33716;SDS011;20046;50.746;7.072;2022-12-18T02:21:55;74.13;;;24.00;;
33716;SDS011;20046;50.746;7.072;2022-12-18T02:27:38;66.63;;;22.63;;
33716;SDS011;20046;50.746;7.072;2022-12-18T02:30:05;70.82;;;24.30;;
33716;SDS011;20046;50.746;7.072;2022-12-18T02:32:39;71.80;;;22.85;;
33716;SDS011;20046;50.746;7.072;2022-12-18T02:35:11;61.78;;;22.73;;
33716;SDS011;20046;50.746;7.072;2022-12-18T02:37:42;61.67;;;21.95;;
33716;SDS011;20046;50.746;7.072;2022-12-18T02:40:10;68.68;;;22.48;;
33716;SDS011;20046;50.746;7.072;2022-12-18T02:42:38;66.70;;;23.60;;
33716;SDS011;20046;50.746;7.072;2022-12-18T02:45:04;77.53;;;25.27;;
33716;SDS011;20046;50.746;7.072;2022-12-18T02:47:31;68.07;;;23.58;;
33716;SDS011;20046;50.746;7.072;2022-12-18T02:55:35;69.88;;;24.23;;
33716;SDS011;20046;50.746;7.072;2022-12-18T03:06:56;57.97;;;21.00;;
33716;SDS011;20046;50.746;7.072;2022-12-18T03:09:26;70.55;;;22.70;;
33716;SDS011;20046;50.746;7.072;2022-12-18T03:11:58;68.83;;;23.37;;
33716;SDS011;20046;50.746;7.072;2022-12-18T03:14:52;49.17;;;17.70;;
33716;SDS011;20046;50.746;7.072;2022-12-18T03:17:43;72.60;;;21.65;;
33716;SDS011;20046;50.746;7.072;2022-12-18T03:20:14;61.78;;;20.50;;
33716;SDS011;20046;50.746;7.072;2022-12-18T03:22:43;68.93;;;23.10;;
33716;SDS011;20046;50.746;7.072;2022-12-18T03:25:13;65.68;;;21.20;;
33716;SDS011;20046;50.746;7.072;2022-12-18T03:27:41;58.38;;;21.92;;
33716;SDS011;20046;50.746;7.072;2022-12-18T03:30:11;70.70;;;22.73;;
33716;SDS011;20046;50.746;7.072;2022-12-18T03:32:41;63.22;;;22.73;;
33716;SDS011;20046;50.746;7.072;2022-12-18T03:35:23;63.25;;;21.98;;
33716;SDS011;20046;50.746;7.072;2022-12-18T03:37:56;63.33;;;22.80;;
33716;SDS011;20046;50.746;7.072;2022-12-18T03:40:25;67.22;;;21.17;;
33716;SDS011;20046;50.746;7.072;2022-12-18T03:45:58;60.80;;;22.15;;
33716;SDS011;20046;50.746;7.072;2022-12-18T03:48:56;61.30;;;20.75;;
33716;SDS011;20046;50.746;7.072;2022-12-18T03:51:37;65.47;;;22.65;;
33716;SDS011;20046;50.746;7.072;2022-12-18T03:56:40;71.40;;;22.15;;
33716;SDS011;20046;50.746;7.072;2022-12-18T03:59:10;65.07;;;22.70;;
33716;SDS011;20046;50.746;7.072;2022-12-18T04:01:40;61.88;;;21.35;;
33716;SDS011;20046;50.746;7.072;2022-12-18T04:04:08;71.93;;;23.08;;
33716;SDS011;20046;50.746;7.072;2022-12-18T04:06:36;69.03;;;22.23;;
33716;SDS011;20046;50.746;7.072;2022-12-18T04:09:03;61.92;;;21.23;;
33716;SDS011;20046;50.746;7.072;2022-12-18T04:11:29;58.60;;;21.70;;
33716;SDS011;20046;50.746;7.072;2022-12-18T04:13:56;55.35;;;20.08;;
33716;SDS011;20046;50.746;7.072;2022-12-18T04:16:23;66.55;;;23.15;;
33716;SDS011;20046;50.746;7.072;2022-12-18T04:18:50;73.13;;;23.52;;
33716;SDS011;20046;50.746;7.072;2022-12-18T04:21:15;68.95;;;22.17;;
33716;SDS011;20046;50.746;7.072;2022-12-18T04:23:41;60.03;;;20.20;;
33716;SDS011;20046;50.746;7.072;2022-12-18T04:26:07;68.50;;;23.65;;
33716;SDS011;20046;50.746;7.072;2022-12-18T04:28:32;62.55;;;22.20;;
33716;SDS011;20046;50.746;7.072;2022-12-18T04:30:58;55.80;;;20.17;;
33716;SDS011;20046;50.746;7.072;2022-12-18T04:33:24;57.17;;;22.00;;
33716;SDS011;20046;50.746;7.072;2022-12-18T04:35:49;65.47;;;21.23;;
33716;SDS011;20046;50.746;7.072;2022-12-18T04:38:15;60.17;;;20.40;;
33716;SDS011;20046;50.746;7.072;2022-12-18T04:40:40;67.68;;;21.05;;
33716;SDS011;20046;50.746;7.072;2022-12-18T04:43:06;55.28;;;19.80;;
33716;SDS011;20046;50.746;7.072;2022-12-18T04:45:32;65.57;;;21.50;;
33716;SDS011;20046;50.746;7.072;2022-12-18T04:47:58;65.43;;;20.95;;
33716;SDS011;20046;50.746;7.072;2022-12-18T04:50:24;69.30;;;21.55;;
33716;SDS011;20046;50.746;7.072;2022-12-18T04:52:49;66.55;;;23.55;;
33716;SDS011;20046;50.746;7.072;2022-12-18T04:55:15;59.80;;;20.35;;
33716;SDS011;20046;50.746;7.072;2022-12-18T04:57:40;57.75;;;21.02;;
33716;SDS011;20046;50.746;7.072;2022-12-18T05:00:06;65.35;;;22.42;;
33716;SDS011;20046;50.746;7.072;2022-12-18T05:02:32;61.38;;;23.25;;
33716;SDS011;20046;50.746;7.072;2022-12-18T05:04:58;65.75;;;22.40;;
33716;SDS011;20046;50.746;7.072;2022-12-18T05:07:23;63.03;;;21.27;;
33716;SDS011;20046;50.746;7.072;2022-12-18T05:09:49;64.20;;;22.13;;
33716;SDS011;20046;50.746;7.072;2022-12-18T05:12:15;68.32;;;23.15;;
33716;SDS011;20046;50.746;7.072;2022-12-18T05:14:40;68.95;;;22.38;;
33716;SDS011;20046;50.746;7.072;2022-12-18T05:17:06;63.38;;;22.23;;
33716;SDS011;20046;50.746;7.072;2022-12-18T05:19:31;57.97;;;22.15;;
33716;SDS011;20046;50.746;7.072;2022-12-18T05:21:57;64.68;;;22.60;;
33716;SDS011;20046;50.746;7.072;2022-12-18T05:24:23;62.10;;;21.70;;
33716;SDS011;20046;50.746;7.072;2022-12-18T05:26:48;61.67;;;22.58;;
33716;SDS011;20046;50.746;7.072;2022-12-18T05:29:14;58.42;;;21.83;;
33716;SDS011;20046;50.746;7.072;2022-12-18T05:31:40;54.60;;;20.63;;
33716;SDS011;20046;50.746;7.072;2022-12-18T05:34:05;69.72;;;24.10;;
33716;SDS011;20046;50.746;7.072;2022-12-18T05:36:31;60.65;;;21.80;;
33716;SDS011;20046;50.746;7.072;2022-12-18T05:38:56;76.68;;;22.27;;
33716;SDS011;20046;50.746;7.072;2022-12-18T05:41:22;62.72;;;21.48;;
33716;SDS011;20046;50.746;7.072;2022-12-18T05:43:48;64.47;;;22.35;;
33716;SDS011;20046;50.746;7.072;2022-12-18T05:46:14;57.67;;;21.40;;
33716;SDS011;20046;50.746;7.072;2022-12-18T05:48:42;65.15;;;21.95;;
33716;SDS011;20046;50.746;7.072;2022-12-18T05:51:10;59.53;;;21.60;;
33716;SDS011;20046;50.746;7.072;2022-12-18T05:53:37;65.22;;;22.48;;
33716;SDS011;20046;50.746;7.072;2022-12-18T05:56:04;67.22;;;23.00;;
33716;SDS011;20046;50.746;7.072;2022-12-18T05:58:31;56.17;;;21.77;;
33716;SDS011;20046;50.746;7.072;2022-12-18T06:00:57;58.00;;;22.13;;
33716;SDS011;20046;50.746;7.072;2022-12-18T06:03:30;62.83;;;21.60;;
33716;SDS011;20046;50.746;7.072;2022-12-18T06:05:56;64.72;;;22.23;;
33716;SDS011;20046;50.746;7.072;2022-12-18T06:08:21;66.28;;;21.35;;
33716;SDS011;20046;50.746;7.072;2022-12-18T06:10:50;69.13;;;23.08;;
33716;SDS011;20046;50.746;7.072;2022-12-18T06:13:20;53.25;;;20.85;;
33716;SDS011;20046;50.746;7.072;2022-12-18T06:15:46;67.25;;;21.98;;
33716;SDS011;20046;50.746;7.072;2022-12-18T06:18:11;62.03;;;20.83;;
33716;SDS011;20046;50.746;7.072;2022-12-18T06:20:37;65.72;;;22.25;;
33716;SDS011;20046;50.746;7.072;2022-12-18T06:23:04;70.43;;;22.95;;
33716;SDS011;20046;50.746;7.072;2022-12-18T06:25:31;68.53;;;23.23;;
33716;SDS011;20046;50.746;7.072;2022-12-18T06:27:57;64.35;;;22.10;;
33716;SDS011;20046;50.746;7.072;2022-12-18T06:30:23;66.45;;;22.40;;
33716;SDS011;20046;50.746;7.072;2022-12-18T06:32:49;63.53;;;22.50;;
33716;SDS011;20046;50.746;7.072;2022-12-18T06:35:15;61.40;;;21.63;;
33716;SDS011;20046;50.746;7.072;2022-12-18T06:37:41;68.85;;;20.05;;
33716;SDS011;20046;50.746;7.072;2022-12-18T06:40:06;61.38;;;22.00;;
33716;SDS011;20046;50.746;7.072;2022-12-18T06:42:33;67.40;;;23.67;;
33716;SDS011;20046;50.746;7.072;2022-12-18T06:44:58;67.57;;;21.63;;
33716;SDS011;20046;50.746;7.072;2022-12-18T06:47:24;64.35;;;23.52;;
33716;SDS011;20046;50.746;7.072;2022-12-18T06:49:49;57.50;;;19.95;;
33716;SDS011;20046;50.746;7.072;2022-12-18T06:52:15;61.60;;;21.65;;
33716;SDS011;20046;50.746;7.072;2022-12-18T06:54:40;63.25;;;21.50;;
33716;SDS011;20046;50.746;7.072;2022-12-18T06:57:06;55.47;;;21.05;;
33716;SDS011;20046;50.746;7.072;2022-12-18T06:59:31;65.15;;;23.40;;
33716;SDS011;20046;50.746;7.072;2022-12-18T07:01:57;58.78;;;21.63;;
33716;SDS011;20046;50.746;7.072;2022-12-18T07:04:27;58.80;;;21.33;;
33716;SDS011;20046;50.746;7.072;2022-12-18T07:06:53;60.25;;;21.92;;
33716;SDS011;20046;50.746;7.072;2022-12-18T07:09:19;60.80;;;22.67;;
33716;SDS011;20046;50.746;7.072;2022-12-18T07:11:45;53.28;;;21.27;;
33716;SDS011;20046;50.746;7.072;2022-12-18T07:14:10;66.40;;;21.83;;
33716;SDS011;20046;50.746;7.072;2022-12-18T07:16:36;52.88;;;21.77;;
33716;SDS011;20046;50.746;7.072;2022-12-18T07:19:01;59.38;;;23.00;;
33716;SDS011;20046;50.746;7.072;2022-12-18T07:21:27;65.38;;;21.80;;
33716;SDS011;20046;50.746;7.072;2022-12-18T07:23:52;63.70;;;22.77;;
33716;SDS011;20046;50.746;7.072;2022-12-18T07:26:18;70.85;;;22.92;;
33716;SDS011;20046;50.746;7.072;2022-12-18T07:28:45;63.05;;;22.98;;
33716;SDS011;20046;50.746;7.072;2022-12-18T07:31:12;54.95;;;21.65;;
33716;SDS011;20046;50.746;7.072;2022-12-18T07:33:39;58.15;;;20.90;;
33716;SDS011;20046;50.746;7.072;2022-12-18T07:36:06;63.78;;;24.15;;
33716;SDS011;20046;50.746;7.072;2022-12-18T07:38:33;60.50;;;21.65;;
33716;SDS011;20046;50.746;7.072;2022-12-18T07:41:09;61.70;;;22.40;;
33716;SDS011;20046;50.746;7.072;2022-12-18T07:43:37;55.65;;;20.67;;
33716;SDS011;20046;50.746;7.072;2022-12-18T07:46:03;57.30;;;21.38;;
33716;SDS011;20046;50.746;7.072;2022-12-18T07:48:29;52.97;;;21.88;;
33716;SDS011;20046;50.746;7.072;2022-12-18T07:50:59;64.10;;;22.77;;
33716;SDS011;20046;50.746;7.072;2022-12-18T07:53:25;62.65;;;20.60;;
33716;SDS011;20046;50.746;7.072;2022-12-18T07:55:55;57.35;;;20.85;;
33716;SDS011;20046;50.746;7.072;2022-12-18T07:58:22;58.78;;;22.45;;
33716;SDS011;20046;50.746;7.072;2022-12-18T08:00:47;58.40;;;22.15;;
33716;SDS011;20046;50.746;7.072;2022-12-18T08:03:13;66.18;;;23.38;;
33716;SDS011;20046;50.746;7.072;2022-12-18T08:05:39;63.30;;;22.85;;
33716;SDS011;20046;50.746;7.072;2022-12-18T08:08:04;64.03;;;22.27;;
33716;SDS011;20046;50.746;7.072;2022-12-18T08:10:30;56.78;;;21.38;;
33716;SDS011;20046;50.746;7.072;2022-12-18T08:12:56;54.90;;;21.98;;
33716;SDS011;20046;50.746;7.072;2022-12-18T08:15:21;64.45;;;23.50;;
33716;SDS011;20046;50.746;7.072;2022-12-18T08:17:47;59.25;;;22.50;;
33716;SDS011;20046;50.746;7.072;2022-12-18T08:20:12;61.88;;;20.77;;
33716;SDS011;20046;50.746;7.072;2022-12-18T08:22:40;54.25;;;20.83;;
33716;SDS011;20046;50.746;7.072;2022-12-18T08:25:08;56.47;;;21.55;;
33716;SDS011;20046;50.746;7.072;2022-12-18T08:27:34;61.60;;;21.55;;
33716;SDS011;20046;50.746;7.072;2022-12-18T08:30:00;59.53;;;22.20;;
33716;SDS011;20046;50.746;7.072;2022-12-18T08:32:26;52.42;;;21.27;;
33716;SDS011;20046;50.746;7.072;2022-12-18T08:34:52;54.53;;;21.52;;
33716;SDS011;20046;50.746;7.072;2022-12-18T08:37:18;49.50;;;19.45;;
33716;SDS011;20046;50.746;7.072;2022-12-18T08:39:44;46.83;;;20.45;;
33716;SDS011;20046;50.746;7.072;2022-12-18T08:42:09;47.85;;;19.83;;
33716;SDS011;20046;50.746;7.072;2022-12-18T08:44:53;46.95;;;19.83;;
33716;SDS011;20046;50.746;7.072;2022-12-18T08:47:19;43.72;;;18.83;;
33716;SDS011;20046;50.746;7.072;2022-12-18T08:49:45;45.13;;;17.17;;
33716;SDS011;20046;50.746;7.072;2022-12-18T08:52:10;44.20;;;16.10;;
33716;SDS011;20046;50.746;7.072;2022-12-18T08:54:39;43.33;;;16.73;;
33716;SDS011;20046;50.746;7.072;2022-12-18T08:57:05;44.47;;;17.98;;
33716;SDS011;20046;50.746;7.072;2022-12-18T08:59:30;54.42;;;19.55;;
33716;SDS011;20046;50.746;7.072;2022-12-18T09:01:56;45.72;;;17.55;;
33716;SDS011;20046;50.746;7.072;2022-12-18T09:04:22;40.45;;;18.17;;
33716;SDS011;20046;50.746;7.072;2022-12-18T09:06:47;45.78;;;18.38;;
33716;SDS011;20046;50.746;7.072;2022-12-18T09:09:13;43.35;;;16.85;;
33716;SDS011;20046;50.746;7.072;2022-12-18T09:11:39;43.72;;;16.88;;
33716;SDS011;20046;50.746;7.072;2022-12-18T09:14:04;42.80;;;17.75;;
33716;SDS011;20046;50.746;7.072;2022-12-18T09:16:30;46.47;;;17.20;;
33716;SDS011;20046;50.746;7.072;2022-12-18T09:18:57;48.10;;;17.88;;
33716;SDS011;20046;50.746;7.072;2022-12-18T09:21:31;40.20;;;16.90;;
33716;SDS011;20046;50.746;7.072;2022-12-18T09:23:58;41.58;;;16.50;;
33716;SDS011;20046;50.746;7.072;2022-12-18T09:26:24;38.78;;;16.67;;
33716;SDS011;20046;50.746;7.072;2022-12-18T09:28:50;46.38;;;18.80;;
33716;SDS011;20046;50.746;7.072;2022-12-18T09:31:17;38.67;;;17.45;;
33716;SDS011;20046;50.746;7.072;2022-12-18T09:33:45;42.40;;;17.00;;
33716;SDS011;20046;50.746;7.072;2022-12-18T09:36:12;37.35;;;16.25;;
33716;SDS011;20046;50.746;7.072;2022-12-18T09:38:39;39.60;;;18.25;;
33716;SDS011;20046;50.746;7.072;2022-12-18T09:41:17;43.90;;;16.88;;
33716;SDS011;20046;50.746;7.072;2022-12-18T09:44:00;43.35;;;17.35;;
33716;SDS011;20046;50.746;7.072;2022-12-18T09:46:37;42.40;;;16.30;;
33716;SDS011;20046;50.746;7.072;2022-12-18T09:51:40;41.22;;;17.20;;
33716;SDS011;20046;50.746;7.072;2022-12-18T09:54:12;38.38;;;15.32;;
33716;SDS011;20046;50.746;7.072;2022-12-18T09:56:43;40.80;;;16.60;;
33716;SDS011;20046;50.746;7.072;2022-12-18T09:59:15;38.85;;;16.00;;
33716;SDS011;20046;50.746;7.072;2022-12-18T10:01:43;41.88;;;16.30;;
33716;SDS011;20046;50.746;7.072;2022-12-18T10:04:08;40.17;;;17.10;;
33716;SDS011;20046;50.746;7.072;2022-12-18T10:06:52;40.10;;;16.65;;
33716;SDS011;20046;50.746;7.072;2022-12-18T10:12:16;39.85;;;16.77;;
33716;SDS011;20046;50.746;7.072;2022-12-18T10:14:54;39.67;;;16.30;;
33716;SDS011;20046;50.746;7.072;2022-12-18T10:25:29;41.97;;;17.80;;
33716;SDS011;20046;50.746;7.072;2022-12-18T10:28:12;43.90;;;17.98;;
33716;SDS011;20046;50.746;7.072;2022-12-18T10:30:40;34.53;;;15.93;;
33716;SDS011;20046;50.746;7.072;2022-12-18T10:33:13;35.88;;;16.20;;
33716;SDS011;20046;50.746;7.072;2022-12-18T10:35:43;37.95;;;17.20;;
33716;SDS011;20046;50.746;7.072;2022-12-18T10:41:00;38.63;;;16.95;;
33716;SDS011;20046;50.746;7.072;2022-12-18T10:43:35;38.00;;;16.95;;
33716;SDS011;20046;50.746;7.072;2022-12-18T10:48:34;40.22;;;16.83;;
33716;SDS011;20046;50.746;7.072;2022-12-18T10:51:04;37.92;;;17.23;;
33716;SDS011;20046;50.746;7.072;2022-12-18T10:53:31;41.55;;;18.00;;
33716;SDS011;20046;50.746;7.072;2022-12-18T10:55:59;40.90;;;17.52;;
33716;SDS011;20046;50.746;7.072;2022-12-18T11:01:02;49.40;;;16.90;;
33716;SDS011;20046;50.746;7.072;2022-12-18T11:06:23;34.60;;;15.38;;
33716;SDS011;20046;50.746;7.072;2022-12-18T11:11:29;43.95;;;18.90;;
33716;SDS011;20046;50.746;7.072;2022-12-18T11:13:57;41.60;;;17.80;;
33716;SDS011;20046;50.746;7.072;2022-12-18T11:16:33;39.10;;;17.42;;
33716;SDS011;20046;50.746;7.072;2022-12-18T11:19:36;40.90;;;17.13;;
33716;SDS011;20046;50.746;7.072;2022-12-18T11:21:58;38.60;;;16.25;;
33716;SDS011;20046;50.746;7.072;2022-12-18T11:24:27;42.45;;;17.73;;
33716;SDS011;20046;50.746;7.072;2022-12-18T11:26:54;39.33;;;17.30;;
33716;SDS011;20046;50.746;7.072;2022-12-18T11:29:26;42.15;;;19.27;;
33716;SDS011;20046;50.746;7.072;2022-12-18T11:32:46;46.97;;;18.88;;
33716;SDS011;20046;50.746;7.072;2022-12-18T11:37:49;41.75;;;18.25;;
33716;SDS011;20046;50.746;7.072;2022-12-18T11:40:30;47.45;;;18.35;;
33716;SDS011;20046;50.746;7.072;2022-12-18T11:45:52;52.95;;;20.17;;
33716;SDS011;20046;50.746;7.072;2022-12-18T11:51:10;42.15;;;17.27;;
33716;SDS011;20046;50.746;7.072;2022-12-18T11:53:39;44.03;;;18.95;;
33716;SDS011;20046;50.746;7.072;2022-12-18T11:58:45;40.22;;;15.10;;
33716;SDS011;20046;50.746;7.072;2022-12-18T12:06:34;44.17;;;18.70;;
33716;SDS011;20046;50.746;7.072;2022-12-18T12:09:15;46.63;;;20.83;;
33716;SDS011;20046;50.746;7.072;2022-12-18T12:19:53;52.20;;;21.13;;
33716;SDS011;20046;50.746;7.072;2022-12-18T12:22:36;49.15;;;18.73;;
33716;SDS011;20046;50.746;7.072;2022-12-18T12:27:39;43.95;;;18.20;;
33716;SDS011;20046;50.746;7.072;2022-12-18T12:38:46;53.00;;;21.00;;
33716;SDS011;20046;50.746;7.072;2022-12-18T12:41:17;51.30;;;20.73;;
33716;SDS011;20046;50.746;7.072;2022-12-18T12:44:05;40.35;;;18.73;;
33716;SDS011;20046;50.746;7.072;2022-12-18T12:46:34;46.10;;;18.48;;
33716;SDS011;20046;50.746;7.072;2022-12-18T12:49:04;47.05;;;20.35;;
33716;SDS011;20046;50.746;7.072;2022-12-18T12:51:39;50.78;;;20.30;;
33716;SDS011;20046;50.746;7.072;2022-12-18T12:54:10;50.60;;;20.30;;
33716;SDS011;20046;50.746;7.072;2022-12-18T12:59:39;48.10;;;20.98;;
33716;SDS011;20046;50.746;7.072;2022-12-18T13:02:28;46.80;;;19.15;;
33716;SDS011;20046;50.746;7.072;2022-12-18T13:05:42;56.50;;;22.38;;
33716;SDS011;20046;50.746;7.072;2022-12-18T13:10:24;51.00;;;21.17;;
33716;SDS011;20046;50.746;7.072;2022-12-18T13:13:06;51.73;;;19.73;;
33716;SDS011;20046;50.746;7.072;2022-12-18T13:31:12;59.22;;;19.33;;
33716;SDS011;20046;50.746;7.072;2022-12-18T13:33:38;51.13;;;21.92;;
33716;SDS011;20046;50.746;7.072;2022-12-18T13:36:14;55.80;;;21.85;;
33716;SDS011;20046;50.746;7.072;2022-12-18T13:39:11;47.67;;;19.75;;
33716;SDS011;20046;50.746;7.072;2022-12-18T13:41:44;63.13;;;21.92;;
33716;SDS011;20046;50.746;7.072;2022-12-18T13:47:02;49.08;;;20.48;;
33716;SDS011;20046;50.746;7.072;2022-12-18T13:49:43;53.65;;;21.45;;
33716;SDS011;20046;50.746;7.072;2022-12-18T13:52:19;47.35;;;20.77;;
33716;SDS011;20046;50.746;7.072;2022-12-18T13:55:01;48.80;;;21.75;;
33716;SDS011;20046;50.746;7.072;2022-12-18T13:57:31;62.63;;;24.35;;
33716;SDS011;20046;50.746;7.072;2022-12-18T14:02:47;65.32;;;20.65;;
33716;SDS011;20046;50.746;7.072;2022-12-18T14:05:29;51.42;;;20.58;;
33716;SDS011;20046;50.746;7.072;2022-12-18T14:08:00;60.85;;;21.27;;
33716;SDS011;20046;50.746;7.072;2022-12-18T14:10:29;60.15;;;23.30;;
33716;SDS011;20046;50.746;7.072;2022-12-18T14:13:05;52.28;;;21.02;;
33716;SDS011;20046;50.746;7.072;2022-12-18T14:15:42;63.60;;;23.38;;
33716;SDS011;20046;50.746;7.072;2022-12-18T14:20:52;52.83;;;21.48;;
33716;SDS011;20046;50.746;7.072;2022-12-18T14:23:37;54.15;;;21.77;;
33716;SDS011;20046;50.746;7.072;2022-12-18T14:28:52;57.25;;;21.77;;
33716;SDS011;20046;50.746;7.072;2022-12-18T14:31:19;61.60;;;24.65;;
33716;SDS011;20046;50.746;7.072;2022-12-18T14:33:46;59.50;;;22.77;;
33716;SDS011;20046;50.746;7.072;2022-12-18T14:36:13;51.83;;;21.55;;
33716;SDS011;20046;50.746;7.072;2022-12-18T14:41:28;56.40;;;20.63;;
33716;SDS011;20046;50.746;7.072;2022-12-18T14:43:54;61.67;;;23.58;;
33716;SDS011;20046;50.746;7.072;2022-12-18T14:46:32;56.63;;;23.10;;
33716;SDS011;20046;50.746;7.072;2022-12-18T14:49:41;59.65;;;22.73;;
33716;SDS011;20046;50.746;7.072;2022-12-18T14:52:01;55.88;;;21.60;;
33716;SDS011;20046;50.746;7.072;2022-12-18T14:54:31;51.10;;;21.20;;
33716;SDS011;20046;50.746;7.072;2022-12-18T14:57:04;55.63;;;22.05;;
33716;SDS011;20046;50.746;7.072;2022-12-18T14:59:30;58.83;;;22.10;;
33716;SDS011;20046;50.746;7.072;2022-12-18T15:04:59;55.50;;;21.98;;
33716;SDS011;20046;50.746;7.072;2022-12-18T15:07:47;54.17;;;22.73;;
33716;SDS011;20046;50.746;7.072;2022-12-18T15:10:16;56.80;;;21.60;;
33716;SDS011;20046;50.746;7.072;2022-12-18T15:12:50;60.45;;;23.33;;
33716;SDS011;20046;50.746;7.072;2022-12-18T15:18:05;51.47;;;22.67;;
33716;SDS011;20046;50.746;7.072;2022-12-18T15:25:46;57.70;;;22.33;;
33716;SDS011;20046;50.746;7.072;2022-12-18T15:28:15;62.63;;;23.65;;
33716;SDS011;20046;50.746;7.072;2022-12-18T15:36:18;52.03;;;21.33;;
33716;SDS011;20046;50.746;7.072;2022-12-18T15:38:48;63.17;;;23.45;;
33716;SDS011;20046;50.746;7.072;2022-12-18T15:41:15;56.67;;;23.02;;
33716;SDS011;20046;50.746;7.072;2022-12-18T15:43:43;62.80;;;25.67;;
33716;SDS011;20046;50.746;7.072;2022-12-18T15:46:17;47.38;;;20.77;;
33716;SDS011;20046;50.746;7.072;2022-12-18T15:48:46;56.28;;;22.75;;
33716;SDS011;20046;50.746;7.072;2022-12-18T15:51:17;56.67;;;23.15;;
33716;SDS011;20046;50.746;7.072;2022-12-18T15:53:48;58.13;;;25.30;;
33716;SDS011;20046;50.746;7.072;2022-12-18T15:56:17;53.28;;;21.92;;
33716;SDS011;20046;50.746;7.072;2022-12-18T15:59:01;57.33;;;20.65;;
33716;SDS011;20046;50.746;7.072;2022-12-18T16:01:28;60.72;;;23.35;;
33716;SDS011;20046;50.746;7.072;2022-12-18T16:03:55;63.75;;;25.00;;
33716;SDS011;20046;50.746;7.072;2022-12-18T16:06:21;65.10;;;24.00;;
33716;SDS011;20046;50.746;7.072;2022-12-18T16:08:48;63.83;;;22.38;;
33716;SDS011;20046;50.746;7.072;2022-12-18T16:11:36;57.05;;;23.67;;
33716;SDS011;20046;50.746;7.072;2022-12-18T16:14:24;66.85;;;26.45;;
33716;SDS011;20046;50.746;7.072;2022-12-18T16:16:53;56.75;;;23.60;;
33716;SDS011;20046;50.746;7.072;2022-12-18T16:19:20;63.42;;;23.50;;
33716;SDS011;20046;50.746;7.072;2022-12-18T16:21:46;63.35;;;24.80;;
33716;SDS011;20046;50.746;7.072;2022-12-18T16:24:16;62.72;;;24.05;;
33716;SDS011;20046;50.746;7.072;2022-12-18T16:29:12;58.08;;;24.38;;
33716;SDS011;20046;50.746;7.072;2022-12-18T16:31:37;51.10;;;21.60;;
33716;SDS011;20046;50.746;7.072;2022-12-18T16:34:10;59.33;;;24.85;;
33716;SDS011;20046;50.746;7.072;2022-12-18T16:36:46;62.80;;;24.97;;
33716;SDS011;20046;50.746;7.072;2022-12-18T16:39:11;60.88;;;22.70;;
33716;SDS011;20046;50.746;7.072;2022-12-18T16:41:37;64.47;;;26.83;;
33716;SDS011;20046;50.746;7.072;2022-12-18T16:44:03;67.95;;;26.50;;
33716;SDS011;20046;50.746;7.072;2022-12-18T16:46:28;72.97;;;27.83;;
33716;SDS011;20046;50.746;7.072;2022-12-18T16:48:56;59.72;;;23.90;;
33716;SDS011;20046;50.746;7.072;2022-12-18T16:51:23;66.68;;;24.38;;
33716;SDS011;20046;50.746;7.072;2022-12-18T16:53:49;71.65;;;26.75;;
33716;SDS011;20046;50.746;7.072;2022-12-18T16:56:14;76.60;;;28.50;;
33716;SDS011;20046;50.746;7.072;2022-12-18T16:58:40;70.78;;;26.33;;
33716;SDS011;20046;50.746;7.072;2022-12-18T17:01:09;73.57;;;28.35;;
33716;SDS011;20046;50.746;7.072;2022-12-18T17:03:35;60.50;;;23.90;;
33716;SDS011;20046;50.746;7.072;2022-12-18T17:06:02;60.92;;;25.30;;